createdAt,value
2018-09-29T00:00:22.428Z,51.60
2018-09-29T00:02:52.508Z,51.90
2018-09-29T00:05:22.490Z,51.90
2018-09-29T00:07:52.549Z,52.00
2018-09-29T00:10:22.614Z,51.90
2018-09-29T00:12:52.541Z,52.00
2018-09-29T00:15:22.421Z,52.10
2018-09-29T00:17:52.374Z,52.20
2018-09-29T00:20:22.423Z,52.50
2018-09-29T00:22:52.382Z,52.80
2018-09-29T00:25:22.335Z,53.00
2018-09-29T00:27:52.279Z,53.00
2018-09-29T00:30:22.233Z,53.20
2018-09-29T00:32:52.306Z,53.10
2018-09-29T00:35:22.214Z,53.10
2018-09-29T00:37:52.162Z,53.20
2018-09-29T00:40:22.097Z,53.40
2018-09-29T00:42:52.063Z,53.60
2018-09-29T00:45:22.096Z,53.70
2018-09-29T00:47:51.966Z,54.50
2018-09-29T00:50:21.876Z,53.80
2018-09-29T00:52:51.798Z,53.70
2018-09-29T00:55:21.810Z,53.70
2018-09-29T00:57:51.713Z,53.80
2018-09-29T01:00:21.740Z,54.10
2018-09-29T01:02:51.803Z,54.00
2018-09-29T01:05:21.710Z,54.10
2018-09-29T01:07:51.689Z,54.40
2018-09-29T01:10:21.650Z,54.30
2018-09-29T01:12:51.585Z,54.10
2018-09-29T01:15:21.506Z,54.40
2018-09-29T01:17:51.434Z,54.50
2018-09-29T01:20:21.526Z,54.80
2018-09-29T01:22:51.526Z,55.00
2018-09-29T01:25:21.443Z,55.40
2018-09-29T01:27:51.406Z,55.50
2018-09-29T01:30:21.444Z,55.50
2018-09-29T01:32:51.450Z,55.50
2018-09-29T01:35:21.445Z,55.50
2018-09-29T01:37:51.367Z,55.50
2018-09-29T01:40:21.437Z,55.40
2018-09-29T01:42:51.367Z,55.40
2018-09-29T01:45:21.262Z,55.50
2018-09-29T01:47:51.176Z,56.20
2018-09-29T01:50:21.189Z,56.60
2018-09-29T01:52:51.526Z,56.60
2018-09-29T01:55:21.456Z,56.70
2018-09-29T01:57:51.397Z,57.00
2018-09-29T02:00:21.289Z,57.30
2018-09-29T02:02:51.265Z,57.40
2018-09-29T02:05:21.978Z,57.60
2018-09-29T02:07:52.068Z,57.80
2018-09-29T02:10:22.022Z,58.00
2018-09-29T02:12:51.964Z,58.00
2018-09-29T02:15:21.953Z,57.50
2018-09-29T02:17:51.950Z,57.90
2018-09-29T02:20:21.949Z,58.00
2018-09-29T02:22:51.886Z,58.40
2018-09-29T02:25:21.913Z,58.60
2018-09-29T02:27:51.809Z,59.00
2018-09-29T02:30:22.290Z,59.30
2018-09-29T02:32:52.308Z,59.30
2018-09-29T02:35:22.338Z,59.30
2018-09-29T02:37:52.242Z,59.30
2018-09-29T02:40:22.200Z,59.30
2018-09-29T02:42:52.208Z,59.60
2018-09-29T02:45:22.130Z,59.70
2018-09-29T02:47:52.176Z,60.00
2018-09-29T02:50:22.114Z,60.20
2018-09-29T02:52:52.108Z,60.10
2018-09-29T02:55:22.068Z,60.00
2018-09-29T02:57:52.030Z,59.70
2018-09-29T03:00:22.014Z,59.70
2018-09-29T03:02:51.986Z,59.80
2018-09-29T03:05:21.886Z,59.70
2018-09-29T03:07:51.878Z,60.00
2018-09-29T03:10:21.799Z,60.30
2018-09-29T03:12:51.735Z,60.60
2018-09-29T03:15:21.663Z,60.30
2018-09-29T03:17:51.661Z,60.10
2018-09-29T03:20:21.803Z,60.20
2018-09-29T03:22:51.729Z,60.50
2018-09-29T03:25:21.686Z,60.50
2018-09-29T03:27:51.666Z,60.50
2018-09-29T03:30:21.704Z,60.60
2018-09-29T03:32:52.103Z,60.90
2018-09-29T03:35:22.001Z,61.20
2018-09-29T03:37:51.980Z,61.10
2018-09-29T03:40:22.066Z,61.40
2018-09-29T03:42:52.041Z,61.40
2018-09-29T03:45:22.008Z,62.00
2018-09-29T03:47:51.947Z,61.70
2018-09-29T03:50:21.862Z,61.90
2018-09-29T03:52:51.828Z,61.70
2018-09-29T03:55:21.816Z,61.50
2018-09-29T03:57:51.820Z,61.80
2018-09-29T04:00:21.815Z,61.90
2018-09-29T04:02:51.777Z,62.50
2018-09-29T04:05:21.765Z,63.20
2018-09-29T04:07:51.621Z,63.20
2018-09-29T04:10:21.530Z,64.20
2018-09-29T04:12:51.451Z,63.60
2018-09-29T04:15:21.374Z,64.20
2018-09-29T04:17:51.358Z,64.50
2018-09-29T04:20:21.360Z,64.20
2018-09-29T04:22:51.359Z,64.40
2018-09-29T04:25:21.334Z,65.00
2018-09-29T04:27:51.478Z,65.20
2018-09-29T04:30:21.410Z,65.70
2018-09-29T04:32:51.342Z,64.80
2018-09-29T04:35:21.234Z,64.80
2018-09-29T04:37:51.207Z,64.80
2018-09-29T04:40:21.141Z,64.60
2018-09-29T04:42:51.327Z,64.20
2018-09-29T04:45:21.406Z,64.40
2018-09-29T04:47:51.317Z,64.40
2018-09-29T04:50:21.419Z,64.40
2018-09-29T04:52:51.373Z,64.40
2018-09-29T04:55:21.380Z,64.70
2018-09-29T04:57:51.449Z,65.00
2018-09-29T05:00:21.453Z,64.90
2018-09-29T05:02:51.387Z,64.80
2018-09-29T05:05:21.319Z,64.70
2018-09-29T05:07:51.274Z,65.10
2018-09-29T05:10:21.209Z,65.20
2018-09-29T05:12:51.236Z,65.30
2018-09-29T05:15:21.215Z,65.40
2018-09-29T05:17:51.270Z,65.60
2018-09-29T05:20:21.256Z,65.70
2018-09-29T05:22:51.244Z,66.10
2018-09-29T05:25:21.196Z,66.10
2018-09-29T05:27:51.174Z,66.50
2018-09-29T05:30:21.073Z,66.40
2018-09-29T05:32:51.039Z,66.50
2018-09-29T05:35:20.963Z,66.60
2018-09-29T05:37:50.929Z,66.70
2018-09-29T05:40:20.873Z,66.70
2018-09-29T05:42:50.832Z,66.60
2018-09-29T05:45:21.226Z,66.60
2018-09-29T05:47:51.134Z,66.60
2018-09-29T05:50:21.134Z,66.80
2018-09-29T05:52:51.089Z,66.50
2018-09-29T05:55:21.062Z,66.30
2018-09-29T05:57:51.075Z,66.10
2018-09-29T06:00:21.135Z,66.10
2018-09-29T06:02:51.038Z,66.10
2018-09-29T06:05:21.047Z,65.80
2018-09-29T06:07:51.377Z,65.50
2018-09-29T06:10:21.373Z,65.50
2018-09-29T06:16:02.866Z,65.00
2018-09-29T06:18:33.863Z,64.40
2018-09-29T06:21:03.875Z,65.20
2018-09-29T06:23:33.794Z,64.30
2018-09-29T06:26:03.783Z,64.20
2018-09-29T06:28:34.034Z,63.80
2018-09-29T06:31:03.929Z,63.70
2018-09-29T06:33:33.598Z,63.80
2018-09-29T06:36:03.833Z,63.90
2018-09-29T06:38:34.005Z,64.20
2018-09-29T06:41:04.447Z,63.40
2018-09-29T06:43:50.807Z,63.20
2018-09-29T06:46:20.705Z,62.70
2018-09-29T06:48:50.844Z,62.40
2018-09-29T06:51:21.080Z,62.00
2018-09-29T06:53:51.067Z,61.90
2018-09-29T06:56:21.039Z,61.80
2018-09-29T06:58:51.035Z,61.30
2018-09-29T07:01:21.064Z,61.30
2018-09-29T07:03:51.043Z,60.90
2018-09-29T07:06:20.993Z,60.70
2018-09-29T07:08:50.974Z,60.10
2018-09-29T07:11:20.998Z,59.80
2018-09-29T07:13:50.992Z,59.70
2018-09-29T07:16:20.938Z,59.40
2018-09-29T07:18:50.896Z,59.20
2018-09-29T07:21:20.890Z,59.00
2018-09-29T07:23:50.848Z,58.20
2018-09-29T07:26:20.777Z,57.90
2018-09-29T07:28:50.780Z,57.90
2018-09-29T07:31:20.712Z,57.60
2018-09-29T07:33:50.735Z,57.30
2018-09-29T07:36:20.682Z,56.70
2018-09-29T07:38:50.596Z,56.10
2018-09-29T07:41:20.631Z,56.20
2018-09-29T07:43:50.873Z,55.90
2018-09-29T07:46:20.825Z,55.20
2018-09-29T07:48:50.847Z,55.40
2018-09-29T07:51:20.835Z,55.00
2018-09-29T07:53:50.813Z,55.10
2018-09-29T07:56:20.803Z,54.30
2018-09-29T07:58:50.728Z,53.50
2018-09-29T08:01:20.823Z,52.50
2018-09-29T08:03:50.746Z,51.50
2018-09-29T08:06:20.714Z,51.60
2018-09-29T08:08:50.942Z,51.40
2018-09-29T08:11:21.042Z,51.20
2018-09-29T08:13:50.942Z,50.90
2018-09-29T08:16:21.020Z,51.00
2018-09-29T08:18:51.358Z,50.90
2018-09-29T08:24:02.849Z,49.20
2018-09-29T08:26:32.897Z,49.80
2018-09-29T08:29:02.900Z,49.00
2018-09-29T08:31:32.897Z,48.20
2018-09-29T08:34:02.915Z,48.10
2018-09-29T08:36:32.861Z,48.10
2018-09-29T08:39:03.415Z,46.40
2018-09-29T08:41:33.330Z,45.90
2018-09-29T08:44:03.337Z,46.30
2018-09-29T08:46:33.527Z,46.00
2018-09-29T08:49:03.461Z,46.10
2018-09-29T08:51:33.453Z,45.80
2018-09-29T08:54:03.386Z,45.50
2018-09-29T08:56:33.356Z,45.30
2018-09-29T08:59:03.915Z,44.90
2018-09-29T09:01:33.872Z,43.20
2018-09-29T09:04:03.990Z,41.30
2018-09-29T09:06:33.967Z,41.10
2018-09-29T09:09:05.515Z,41.40
2018-09-29T09:11:35.469Z,42.10
2018-09-29T09:14:05.659Z,42.20
2018-09-29T09:16:35.806Z,41.80
2018-09-29T09:19:06.192Z,42.00
2018-09-29T09:21:36.812Z,41.70
2018-09-29T09:24:13.751Z,40.50
2018-09-29T09:26:44.199Z,40.00
2018-09-29T09:29:14.185Z,38.70
2018-09-29T09:31:44.353Z,38.60
2018-09-29T09:34:14.428Z,38.70
2018-09-29T09:36:44.697Z,39.10
2018-09-29T09:39:14.668Z,38.10
2018-09-29T09:41:44.650Z,37.30
2018-09-29T09:44:14.598Z,36.80
2018-09-29T09:46:44.738Z,35.80
2018-09-29T09:49:14.681Z,36.80
2018-09-29T09:51:44.725Z,38.50
2018-09-29T09:54:14.951Z,35.90
2018-09-29T09:56:44.926Z,36.70
2018-09-29T09:59:14.946Z,35.20
2018-09-29T10:01:50.541Z,34.60
2018-09-29T10:04:20.502Z,35.90
2018-09-29T10:06:50.480Z,34.60
2018-09-29T10:09:20.462Z,34.70
2018-09-29T10:11:50.398Z,35.80
2018-09-29T10:14:20.623Z,35.90
2018-09-29T10:16:50.581Z,35.40
2018-09-29T10:19:20.883Z,32.10
2018-09-29T10:21:50.845Z,32.90
2018-09-29T10:24:21.107Z,33.70
2018-09-29T10:26:51.122Z,32.80
2018-09-29T10:29:21.053Z,33.00
2018-09-29T10:31:51.022Z,33.10
2018-09-29T10:34:21.027Z,31.60
2018-09-29T10:36:51.259Z,31.00
2018-09-29T10:39:21.289Z,30.50
2018-09-29T10:41:51.242Z,31.50
2018-09-29T10:44:21.229Z,32.10
2018-09-29T10:46:51.676Z,31.50
2018-09-29T10:49:21.607Z,30.30
2018-09-29T10:51:51.625Z,31.40
2018-09-29T10:54:21.687Z,31.70
2018-09-29T10:56:51.713Z,31.40
2018-09-29T10:59:21.633Z,31.70
2018-09-29T11:01:51.860Z,31.50
2018-09-29T11:04:21.878Z,32.30
2018-09-29T11:06:51.870Z,31.60
2018-09-29T11:09:21.859Z,31.70
2018-09-29T11:11:51.879Z,31.60
2018-09-29T11:14:21.885Z,31.00
2018-09-29T11:16:51.830Z,30.80
2018-09-29T11:19:21.793Z,31.20
2018-09-29T11:21:51.841Z,30.30
2018-09-29T11:24:21.822Z,30.10
2018-09-29T11:26:52.003Z,30.10
2018-09-29T11:29:21.970Z,29.90
2018-09-29T11:31:51.931Z,29.90
2018-09-29T11:34:21.897Z,30.00
2018-09-29T11:36:51.854Z,30.40
2018-09-29T11:39:21.928Z,30.00
2018-09-29T11:41:51.803Z,30.30
2018-09-29T11:44:21.757Z,30.30
2018-09-29T11:46:51.771Z,30.30
2018-09-29T11:49:21.787Z,31.50
2018-09-29T11:51:51.739Z,31.50
2018-09-29T11:54:21.724Z,31.30
2018-09-29T11:56:51.662Z,32.10
2018-09-29T11:59:21.807Z,31.60
2018-09-29T12:01:52.326Z,31.20
2018-09-29T12:04:22.297Z,30.80
2018-09-29T12:06:52.833Z,31.80
2018-09-29T12:09:22.826Z,30.50
2018-09-29T12:11:53.245Z,30.80
2018-09-29T12:14:23.392Z,30.10
2018-09-29T12:16:53.370Z,31.10
2018-09-29T12:19:23.591Z,31.20
2018-09-29T12:21:53.597Z,31.30
2018-09-29T12:24:23.571Z,31.20
2018-09-29T12:26:53.543Z,32.00
2018-09-29T12:29:23.507Z,32.00
2018-09-29T12:31:53.511Z,32.60
2018-09-29T12:34:23.501Z,31.80
2018-09-29T12:36:53.557Z,31.70
2018-09-29T12:39:23.419Z,32.50
2018-09-29T12:41:53.359Z,32.30
2018-09-29T12:44:23.534Z,32.40
2018-09-29T12:46:53.789Z,32.70
2018-09-29T12:49:23.801Z,31.90
2018-09-29T12:51:53.798Z,32.00
2018-09-29T12:54:23.682Z,32.40
2018-09-29T12:56:53.650Z,33.10
2018-09-29T12:59:23.811Z,33.30
2018-09-29T13:01:53.898Z,33.80
2018-09-29T13:04:23.859Z,34.10
2018-09-29T13:06:53.834Z,33.90
2018-09-29T13:09:23.888Z,33.10
2018-09-29T13:11:53.935Z,32.40
2018-09-29T13:14:23.867Z,33.20
2018-09-29T13:16:53.930Z,32.40
2018-09-29T13:19:23.856Z,31.90
2018-09-29T13:21:53.806Z,32.50
2018-09-29T13:24:23.761Z,31.90
2018-09-29T13:26:53.742Z,31.90
2018-09-29T13:29:23.747Z,32.00
2018-09-29T13:31:53.697Z,32.00
2018-09-29T13:34:24.197Z,32.00
2018-09-29T13:36:54.202Z,32.10
2018-09-29T13:39:25.059Z,32.00
2018-09-29T13:41:55.007Z,32.10
2018-09-29T13:44:25.215Z,32.50
2018-09-29T13:46:55.220Z,31.90
2018-09-29T13:49:25.236Z,31.60
2018-09-29T13:51:55.207Z,30.60
2018-09-29T13:54:25.201Z,30.30
2018-09-29T13:56:55.206Z,30.60
2018-09-29T13:59:25.261Z,29.90
2018-09-29T14:01:55.247Z,29.90
2018-09-29T14:04:25.141Z,29.00
2018-09-29T14:06:55.104Z,29.70
2018-09-29T14:09:25.177Z,29.30
2018-09-29T14:11:55.280Z,30.10
2018-09-29T14:14:25.229Z,29.90
2018-09-29T14:16:55.159Z,29.70
2018-09-29T14:19:25.197Z,30.00
2018-09-29T14:21:55.171Z,29.90
2018-09-29T14:24:25.155Z,30.00
2018-09-29T14:26:55.061Z,29.90
2018-09-29T14:29:25.002Z,29.80
2018-09-29T14:31:54.921Z,30.40
2018-09-29T14:34:25.210Z,31.00
2018-09-29T14:36:55.308Z,30.80
2018-09-29T14:39:25.328Z,31.20
2018-09-29T14:41:55.282Z,31.40
2018-09-29T14:44:25.278Z,31.80
2018-09-29T14:46:55.197Z,31.70
2018-09-29T14:49:25.252Z,32.70
2018-09-29T14:51:55.224Z,31.60
2018-09-29T14:54:25.450Z,31.60
2018-09-29T14:56:55.480Z,31.60
2018-09-29T14:59:25.431Z,31.60
2018-09-29T15:01:55.431Z,31.60
2018-09-29T15:04:25.463Z,31.60
2018-09-29T15:06:55.564Z,31.70
2018-09-29T15:09:25.605Z,31.50
2018-09-29T15:11:55.603Z,32.00
2018-09-29T15:14:25.574Z,32.50
2018-09-29T15:16:55.477Z,32.60
2018-09-29T15:19:25.445Z,32.00
2018-09-29T15:21:55.437Z,32.40
2018-09-29T15:24:25.479Z,32.40
2018-09-29T15:26:55.545Z,32.60
2018-09-29T15:29:25.529Z,32.60
2018-09-29T15:31:55.481Z,31.90
2018-09-29T15:34:25.452Z,31.60
2018-09-29T15:36:55.537Z,32.10
2018-09-29T15:39:25.526Z,32.30
2018-09-29T15:41:55.452Z,32.80
2018-09-29T15:44:25.432Z,32.80
2018-09-29T15:46:55.411Z,33.20
2018-09-29T15:49:25.587Z,33.00
2018-09-29T15:51:55.533Z,33.10
2018-09-29T15:54:25.605Z,32.90
2018-09-29T15:56:55.531Z,33.10
2018-09-29T15:59:25.534Z,33.00
2018-09-29T16:01:55.478Z,33.20
2018-09-29T16:04:25.393Z,32.80
2018-09-29T16:06:55.423Z,33.40
2018-09-29T16:09:25.413Z,33.50
2018-09-29T16:11:55.393Z,34.00
2018-09-29T16:14:25.438Z,34.30
2018-09-29T16:16:55.368Z,35.30
2018-09-29T16:19:25.435Z,34.30
2018-09-29T16:21:55.349Z,34.60
2018-09-29T16:24:25.320Z,34.80
2018-09-29T16:26:55.478Z,34.70
2018-09-29T16:29:25.963Z,35.10
2018-09-29T16:31:56.023Z,35.30
2018-09-29T16:34:26.054Z,35.50
2018-09-29T16:36:55.986Z,35.40
2018-09-29T16:39:26.054Z,35.40
2018-09-29T16:41:56.003Z,35.50
2018-09-29T16:44:25.911Z,35.80
2018-09-29T16:46:55.826Z,35.60
2018-09-29T16:49:25.817Z,35.90
2018-09-29T16:51:55.726Z,36.20
2018-09-29T16:54:25.978Z,36.50
2018-09-29T16:56:56.015Z,36.70
2018-09-29T16:59:26.350Z,37.20
2018-09-29T17:01:56.418Z,37.70
2018-09-29T17:04:26.439Z,38.30
2018-09-29T17:06:56.442Z,39.60
2018-09-29T17:09:26.478Z,40.10
2018-09-29T17:11:56.434Z,39.80
2018-09-29T17:14:26.390Z,40.20
2018-09-29T17:16:56.305Z,40.50
2018-09-29T17:19:26.445Z,41.20
2018-09-29T17:21:56.427Z,41.40
2018-09-29T17:24:26.394Z,40.50
2018-09-29T17:26:56.574Z,40.50
2018-09-29T17:29:27.200Z,41.00
2018-09-29T17:31:57.316Z,42.30
2018-09-29T17:34:27.221Z,42.50
2018-09-29T17:36:57.753Z,42.80
2018-09-29T17:39:27.967Z,41.80
2018-09-29T17:41:58.015Z,42.80
2018-09-29T17:44:27.930Z,42.20
2018-09-29T17:46:57.895Z,42.10
2018-09-29T17:49:27.895Z,44.00
2018-09-29T17:51:57.821Z,43.60
2018-09-29T17:54:27.776Z,43.80
2018-09-29T17:56:57.869Z,44.10
2018-09-29T17:59:27.879Z,45.50
2018-09-29T18:01:57.847Z,45.60
2018-09-29T18:04:27.840Z,46.30
2018-09-29T18:06:57.770Z,46.90
2018-09-29T18:09:27.729Z,47.00
2018-09-29T18:11:58.006Z,47.00
2018-09-29T18:14:28.214Z,47.50
2018-09-29T18:16:58.206Z,48.20
2018-09-29T18:19:28.202Z,48.60
2018-09-29T18:21:58.474Z,49.20
2018-09-29T18:24:28.434Z,50.10
2018-09-29T18:26:58.411Z,50.90
2018-09-29T18:29:28.366Z,50.70
2018-09-29T18:31:58.312Z,50.70
2018-09-29T18:34:28.302Z,50.80
2018-09-29T18:36:58.209Z,51.20
2018-09-29T18:39:28.189Z,51.40
2018-09-29T18:41:58.551Z,51.90
2018-09-29T18:44:28.454Z,51.80
2018-09-29T18:46:58.487Z,51.80
2018-09-29T18:49:28.404Z,51.80
2018-09-29T18:51:58.370Z,51.80
2018-09-29T18:54:28.362Z,51.70
2018-09-29T18:56:58.355Z,51.80
2018-09-29T18:59:35.083Z,51.70
2018-09-29T19:02:05.152Z,52.10
2018-09-29T19:04:35.085Z,52.40
2018-09-29T19:07:05.061Z,52.60
2018-09-29T19:09:35.034Z,53.60
2018-09-29T19:12:05.481Z,53.80
2018-09-29T19:14:35.453Z,54.10
2018-09-29T19:17:05.691Z,54.40
2018-09-29T19:19:35.630Z,54.60
2018-09-29T19:22:05.931Z,54.80
2018-09-29T19:24:35.904Z,54.90
2018-09-29T19:27:05.850Z,55.10
2018-09-29T19:29:35.813Z,55.20
2018-09-29T19:32:06.111Z,55.40
2018-09-29T19:34:36.110Z,55.70
2018-09-29T19:37:06.262Z,55.70
2018-09-29T19:39:36.289Z,55.70
2018-09-29T19:42:06.157Z,55.70
2018-09-29T19:44:36.097Z,55.70
2018-09-29T19:47:06.076Z,55.90
2018-09-29T19:49:35.977Z,55.90
2018-09-29T19:52:05.924Z,56.20
2018-09-29T19:54:35.922Z,56.30
2018-09-29T19:57:05.869Z,56.30
2018-09-29T19:59:36.116Z,57.10
2018-09-29T20:02:06.629Z,56.70
2018-09-29T20:04:36.723Z,57.00
2018-09-29T20:07:06.834Z,57.10
2018-09-29T20:09:37.070Z,57.10
2018-09-29T20:12:07.083Z,56.90
2018-09-29T20:14:37.079Z,57.70
2018-09-29T20:17:07.057Z,57.80
2018-09-29T20:19:37.020Z,57.80
2018-09-29T20:22:09.022Z,57.90
2018-09-29T20:24:39.106Z,58.60
2018-09-29T20:27:09.381Z,58.90
2018-09-29T20:29:39.790Z,59.00
2018-09-29T20:32:09.778Z,58.70
2018-09-29T20:34:39.868Z,58.40
2018-09-29T20:37:10.094Z,58.00
2018-09-29T20:39:40.206Z,58.00
2018-09-29T20:42:10.191Z,58.80
2018-09-29T20:44:40.114Z,58.00
2018-09-29T20:47:10.143Z,57.90
2018-09-29T20:49:40.104Z,58.00
2018-09-29T20:52:10.061Z,58.00
2018-09-29T20:54:40.021Z,57.90
2018-09-29T20:57:10.150Z,57.70
2018-09-29T20:59:40.140Z,57.90
2018-09-29T21:02:10.255Z,58.50
2018-09-29T21:04:40.243Z,59.00
2018-09-29T21:07:10.339Z,59.30
2018-09-29T21:09:40.278Z,59.20
2018-09-29T21:12:10.320Z,59.20
2018-09-29T21:14:40.514Z,59.80
2018-09-29T21:17:10.750Z,60.00
2018-09-29T21:19:40.697Z,59.90
2018-09-29T21:22:10.761Z,60.20
2018-09-29T21:24:40.729Z,60.70
2018-09-29T21:27:10.657Z,61.00
2018-09-29T21:29:40.681Z,61.40
2018-09-29T21:32:10.613Z,61.90
2018-09-29T21:34:40.594Z,62.40
2018-09-29T21:37:10.637Z,62.80
2018-09-29T21:39:40.602Z,62.90
2018-09-29T21:42:10.735Z,62.90
2018-09-29T21:44:41.031Z,62.60
2018-09-29T21:47:10.985Z,62.80
2018-09-29T21:49:41.112Z,63.00
2018-09-29T21:52:11.102Z,63.30
2018-09-29T21:54:41.092Z,63.90
2018-09-29T21:57:11.072Z,63.20
2018-09-29T21:59:41.090Z,63.80
2018-09-29T22:02:11.464Z,64.40
2018-09-29T22:04:41.628Z,63.90
2018-09-29T22:07:11.602Z,63.70
2018-09-29T22:09:41.763Z,63.90
2018-09-29T22:12:11.825Z,64.10
2018-09-29T22:14:41.809Z,64.80
2018-09-29T22:17:11.755Z,64.50
2018-09-29T22:19:42.111Z,64.80
2018-09-29T22:22:12.045Z,64.70
2018-09-29T22:24:42.030Z,64.50
2018-09-29T22:27:11.986Z,64.30
2018-09-29T22:29:41.921Z,64.40
2018-09-29T22:32:12.022Z,64.10
2018-09-29T22:34:41.957Z,63.80
2018-09-29T22:37:12.145Z,63.80
2018-09-29T22:39:42.094Z,63.60
2018-09-29T22:42:12.042Z,63.40
2018-09-29T22:44:41.999Z,63.10
2018-09-29T22:47:11.963Z,63.10
2018-09-29T22:49:41.967Z,63.00
2018-09-29T22:52:11.870Z,63.10
2018-09-29T22:54:48.683Z,63.10
2018-09-29T22:57:18.650Z,63.10
2018-09-29T22:59:48.631Z,63.10
2018-09-29T23:02:18.615Z,63.10
2018-09-29T23:04:48.579Z,63.10
2018-09-29T23:07:18.527Z,63.10
2018-09-29T23:09:48.579Z,63.10
2018-09-29T23:12:18.482Z,63.10
2018-09-29T23:14:48.462Z,63.10
2018-09-29T23:17:18.363Z,62.90
2018-09-29T23:19:48.286Z,63.00
2018-09-29T23:22:18.293Z,63.00
2018-09-29T23:24:48.198Z,63.10
2018-09-29T23:27:18.163Z,63.00
2018-09-29T23:29:48.118Z,63.00
2018-09-29T23:32:18.103Z,63.00
2018-09-29T23:34:48.075Z,63.00
2018-09-29T23:37:17.977Z,62.80
2018-09-29T23:39:48.158Z,62.60
2018-09-29T23:42:18.231Z,62.50
2018-09-29T23:44:48.215Z,62.50
2018-09-29T23:47:18.183Z,62.30
2018-09-29T23:49:48.135Z,62.20
2018-09-29T23:52:18.203Z,62.40
2018-09-29T23:54:48.274Z,62.40
2018-09-29T23:57:18.246Z,62.10
2018-09-29T23:59:48.221Z,62.00
